Milford, Utah Weather observations

Data are for observation ending at time listed.
 Day   Time    Ave.   Ave.  Ave.  Vector   Max.   Stn.    Total    Solar   Ave.  
  of    of     Air    Rel.  Wind   Wind    Wind   Baro.  Precip.   Rad.    Soil  
Year   Day     Temp.  Hum.  Speed  Dir.    Gust   Pres.                    Temp. 
2014   (MST)    F      %     mph   deg.    mph     mb.     in.     W/m2     F   
------------------------------------------------------------------------------
 330   11:50   53.6    32    5.4   173     10.9   858.1    0.00     438    41.7
 330   12:00   54.6    32    4.9   178     10.4   858.1    0.00     443    41.7
 330   12:10   55.2    31    6.3   171     10.7   858.0    0.00     444    41.7
 330   12:20   55.2    31    6.4   174     11.0   858.0    0.00     446    41.7
 330   12:30   55.9    30    6.0   172     10.4   857.9    0.00     447    41.7
 330   12:40   55.6    31    6.8   174     10.6   857.8    0.00     444    41.7
 330   12:50   56.4    30    6.6   170     11.0   857.6    0.00     444    41.7
 330   13:00   56.7    30    5.5   173     10.5   857.6    0.00     439    41.7
 330   13:10   57.3    29    5.8   168      9.3   857.5    0.00     435    41.7
 330   13:20   58.0    29    5.3   176      9.5   857.5    0.00     427    41.7
 330   13:30   58.5    28    5.5   173      8.8   857.4    0.00     420    41.7
 330   13:40   58.5    28    5.9   168      9.6   857.4    0.00     410    41.8
 330   13:50   58.9    28    5.4   172      9.7   857.4    0.00     400    41.8
 330   14:00   59.4    27    5.2   171      8.6   857.3    0.00     389    41.8
 330   14:10   59.9    27    4.5   167      9.1   857.3    0.00     376    41.9
 330   14:20   59.9    26    4.1   172      7.5   857.2    0.00     316    41.9
 330   14:30   59.8    26    3.7   171      8.2   857.1    0.00      26    41.9
 330   14:40   59.8    25    3.5   170      6.9   856.9    0.00      27    41.9
 330   14:50   59.8    23    4.1   162      7.4   856.6    0.00      25    41.9
 330   15:00   59.9    23    4.0   169      7.9   856.4    0.00      24    41.9
 330   15:10   60.0    22    2.9   171      4.7   856.2    0.00      53    42.0
 330   15:20   60.4    22    2.8   172      4.7   856.1    0.00      58    42.0
 330   15:30   61.4    20    1.9   155      3.9   856.1    0.00     171    42.0
 330   15:40   61.6    20    2.2   164      4.4   856.2    0.00     220    42.1
 330   15:50   61.1    20    2.0   185      3.9   856.2    0.00     198    42.2
 330   16:00   60.4    20    2.3   160      4.0   856.1    0.00     171    42.2
 330   16:10   61.1    20    1.8   158      3.1   856.2    0.00     138    42.3
 330   16:20   61.0    19    1.1   171      2.0   856.3    0.00      48    42.3
 330   16:30   59.4    20    1.1   185      1.8   856.4    0.00      22    42.4
 330   16:40   58.1    22    0.1   182      0.9   856.3    0.00      12    42.4
 330   16:50   57.0    23    0.0     0      0.0   856.2    0.00      12    42.5
 330   17:00   56.3    24    0.0     0      0.0   856.0    0.00       7    42.6
 330   17:10   56.0    25    0.6   222      1.3   855.9    0.00       6    42.6
 330   17:20   54.9    26    0.1   240      1.3   855.8    0.00       3    42.7
 330   17:30   54.1    27    0.8   253      1.7   855.7    0.00       0    42.7
 330   17:40   53.0    28    0.5   203      1.3   855.5    0.00       0    42.7
 330   17:50   49.7    32    1.4   180      2.3   855.4    0.00       0    42.8
 330   18:00   47.7    36    0.2   207      1.1   855.2    0.00       0    42.9
 330   18:10   45.9    39    0.7   333      1.6   855.1    0.00       0    42.9
 330   18:20   44.7    41    0.9   294      1.7   855.0    0.00       0    42.9
 330   18:30   42.8    44    1.0   298      2.6   854.9    0.00       0    43.0
 330   18:40   40.6    47    1.6   296      3.0   854.8    0.00       0    43.0
 330   18:50   39.3    50    2.7   290      3.8   854.7    0.00       0    43.1
 330   19:00   39.0    51    1.3   197      4.4   854.6    0.00       0    43.1
 330   19:10   37.2    53    0.9   163      3.1   854.6    0.00       0    43.1
 330   19:20   36.9    54    0.5   299      1.2   854.4    0.00       0    43.2
 330   19:30   36.9    55    0.5   189      1.7   854.4    0.00       0    43.2
 330   19:40   36.7    55    0.3   177      1.6   854.4    0.00       0    43.2
 330   19:50   37.1    55    0.9   296      2.3   854.4    0.00       0    43.2
 330   20:00   38.2    52    1.7   275      2.5   854.3    0.00       0    43.3
 330   20:10   37.1    54    0.6   287      2.1   854.4    0.00       0    43.3
 330   20:20   35.8    56    0.4   248      1.2   854.5    0.00       0    43.3
 330   20:30   35.0    58    0.3   172      1.6   854.5    0.00       0    43.3
 330   20:40   34.2    59    0.0   182      0.4   854.4    0.00       0    43.4
 330   20:50   33.9    60    0.0     0      0.0   854.4    0.00       0    43.4
 330   21:00   33.2    61    0.2   163      1.6   854.3    0.00       0    43.4
 330   21:10   33.3    62    0.2   186      0.8   854.3    0.00       0    43.4
 330   21:20   33.0    62    0.0     0      0.0   854.3    0.00       0    43.4
 330   21:30   33.1    61    0.3   187      1.2   854.3    0.00       0    43.4
 330   21:40   33.0    60    0.0     0      0.0   854.3    0.00       0    43.4
 330   21:50   32.8    60    0.7   182      2.9   854.2    0.00       0    43.4
 330   22:00   31.5    62    1.4   204      2.6   854.3    0.00       0    43.5
 330   22:10   30.4    63    1.3   231      2.6   854.2    0.00       0    43.5
 330   22:20   30.3    63    1.5   195      2.4   854.2    0.00       0    43.5
 330   22:30   30.5    64    1.7   199      2.8   854.1    0.00       0    43.5
 330   22:40   30.4    65    1.7   185      2.8   854.1    0.00       0    43.5
 330   22:50   30.5    64    2.1   181      3.6   854.2    0.00       0    43.5
 330   23:00   31.2    63    2.6   191      3.8   854.2    0.00       0    43.5
 330   23:10   29.7    63    2.9   168      3.9   854.2    0.00       0    43.5
 330   23:20   28.0    66    2.4   175      3.1   854.3    0.00       0    43.5
 330   23:30   27.9    66    2.2   194      3.8   854.3    0.00       0    43.5
 330   23:40   28.3    66    2.3   195      3.2   854.3    0.00       0    43.5
 330   23:50   28.3    66    1.8   200      2.9   854.2    0.00       0    43.5
 331    0:00   28.4    65    2.1   192      3.5   854.2    0.00       0    43.5
 331    0:10   28.0    65    1.5   207      2.8   854.1    0.00       0    43.5
 331    0:20   28.6    66    1.9   218      3.6   854.0    0.00       0    43.5
 331    0:30   29.0    65    1.7   219      2.8   854.0    0.00       0    43.5
 331    0:40   28.7    66    2.1   222      4.2   854.0    0.00       0    43.5
 331    0:50   28.1    65    2.4   233      5.6   853.9    0.00       0    43.5
 331    1:00   27.4    65    2.2   231      4.2   854.0    0.00       0    43.5
 331    1:10   27.2    65    1.9   228      3.6   854.0    0.00       0    43.5
 331    1:20   27.4    66    1.9   237      3.4   853.9    0.00       0    43.5
 331    1:30   27.3    66    1.4   246      2.6   854.0    0.00       0    43.4
 331    1:40   27.3    67    0.7   240      2.1   853.9    0.00       0    43.4
 331    1:50   27.7    68    1.1   222      2.4   853.8    0.00       0    43.4
 331    2:00   28.4    68    1.4   202      2.5   853.7    0.00       0    43.4
 331    2:10   28.6    68    1.2   221      2.3   853.7    0.00       0    43.4
 331    2:20   28.4    68    1.5   208      2.5   853.7    0.00       0    43.4
 331    2:30   27.7    69    1.0   187      2.0   853.7    0.00       0    43.4
 331    2:40   27.0    69    1.7   174      2.8   853.8    0.00       0    43.4
 331    2:50   25.6    70    1.7   170      3.0   853.7    0.00       0    43.3
 331    3:00   26.1    71    2.4   195      4.2   853.7    0.00       0    43.3
 331    3:10   26.7    71    2.8   194      4.3   853.7    0.00       0    43.3
 331    3:20   26.4    71    1.4   198      3.3   853.6    0.00       0    43.3
 331    3:30   25.8    71    0.5   191      1.3   853.5    0.00       0    43.2
 331    3:40   25.5    71    0.0     0      0.0   853.5    0.00       0    43.2
 331    3:50   25.3    71    1.2   192      2.0   853.3    0.00       0    43.2
 331    4:00   25.5    72    1.1   198      2.1   853.3    0.00       0    43.2
 331    4:10   25.6    71    1.2   194      2.0   853.2    0.00       0    43.2
 331    4:20   25.7    71    1.3   186      2.5   853.1    0.00       0    43.2
 331    4:30   25.3    72    1.8   190      3.3   853.0    0.00       0    43.1
 331    4:40   25.1    72    1.3   207      2.1   853.0    0.00       0    43.1
 331    4:50   25.8    72    1.2   215      2.3   853.0    0.00       0    43.1
 331    5:00   26.0    72    1.6   186      3.1   853.0    0.00       0    43.1
 331    5:10   26.2    72    2.4   184      4.8   853.0    0.00       1    43.1
 331    5:20   26.5    72    2.5   196      4.5   852.9    0.00       0    43.0
 331    5:30   27.1    71    2.7   194      4.9   852.8    0.00       0    43.0
 331    5:40   27.7    70    1.9   205      3.4   852.8    0.00       0    43.0
 331    5:50   28.7    70    2.5   197      4.4   852.8    0.00       0    42.9
 331    6:00   28.9    68    3.0   191      5.2   852.8    0.00       0    42.9
 331    6:10   28.7    68    2.5   190      3.9   852.9    0.00       0    42.9
 331    6:20   28.4    68    2.8   183      4.7   852.9    0.00       0    42.9
 331    6:30   28.0    68    2.6   183      3.9   852.9    0.00       0    42.9
 331    6:40   27.4    69    2.6   192      4.4   852.9    0.00       0    42.9
 331    6:50   27.3    69    2.9   194      5.0   852.9    0.00       0    42.9
 331    7:00   27.5    68    2.9   193      5.0   852.8    0.00       0    42.8
 331    7:10   27.3    69    2.9   190      4.7   852.9    0.00       0    42.8
 331    7:20   27.2    69    2.5   193      4.5   852.9    0.00       1    42.8
 331    7:30   27.1    69    2.5   190      3.9   853.0    0.00       3    42.8
 331    7:40   27.1    69    2.3   193      3.7   853.0    0.00       8    42.8
 331    7:50   27.1    69    2.6   190      4.1   853.0    0.00      14    42.7
 331    8:00   27.4    68    3.7   183      5.5   853.0    0.00      26    42.7
 331    8:10   27.4    68    2.9   187      4.7   853.0    0.00      51    42.7
 331    8:20   28.4    67    4.1   188      7.2   853.0    0.00      83    42.6
 331    8:30   29.9    65    4.3   187      6.2   853.0    0.00     105    42.6
 331    8:40   31.8    61    4.5   184      7.5   853.1    0.00     137    42.6
 331    8:50   34.3    57    4.1   178      6.4   853.3    0.00     177    42.6
 331    9:00   36.4    54    4.5   170      9.1   853.5    0.00     203    42.5
 331    9:10   37.5    52    5.9   175     10.4   853.8    0.00     251    42.5
 331    9:20   38.4    51    6.0   174      9.8   854.1    0.00     310    42.6
 331    9:30   39.7    49    7.0   174     10.9   854.2    0.00     286    42.6
 331    9:40   41.3    47    6.4   176     10.8   854.4    0.00     247    42.5
 331    9:50   43.5    43    7.1   174     12.7   854.5    0.00     325    42.6
 331   10:00   44.8    39    7.4   171     11.8   854.7    0.00     281    42.5
 331   10:10   45.3    38    8.2   170     12.3   854.9    0.00     356    42.5
 331   10:20   48.1    35    8.8   173     13.6   854.9    0.00     465    42.5
 331   10:30   48.1    34    8.4   175     13.0   855.0    0.00     203    42.5
 331   10:40   47.1    33    7.5   178     13.3   855.0    0.00     137    42.5
 331   10:50   47.1    33    7.7   173     12.5   854.7    0.00     131    42.5
 331   11:00   46.8    33    6.9   177     12.8   854.4    0.00     151    42.5
 331   11:10   47.7    32    6.2   182     12.7   854.3    0.00     241    42.5
 331   11:20   48.4    30    6.9   183     12.2   854.2    0.00     207    42.4
 331   11:30   49.0    30    6.1   183     10.6   854.1    0.00     193    42.4
 331   11:40   48.9    30    5.9   183     10.5   854.1    0.00     159    42.4

Return to Milford, Utah graphs page.


Western Regional Climate Center,wrcc@dri.edu